createdAt,value
2017-02-15T00:01:13.023Z,24.58
2017-02-15T00:02:26.144Z,24.6
2017-02-15T00:03:39.829Z,24.61
2017-02-15T00:04:52.926Z,24.53
2017-02-15T00:06:06.637Z,24.61
2017-02-15T00:07:19.161Z,24.55
2017-02-15T00:08:32.844Z,24.61
2017-02-15T00:09:45.938Z,24.58
2017-02-15T00:10:59.675Z,24.58
2017-02-15T00:12:13.374Z,24.61
2017-02-15T00:13:26.495Z,24.61
2017-02-15T00:14:39.628Z,24.62
2017-02-15T00:15:53.369Z,24.65
2017-02-15T00:17:06.450Z,24.69
2017-02-15T00:18:20.174Z,24.57
2017-02-15T00:19:33.882Z,24.67
2017-02-15T00:20:47.586Z,24.57
2017-02-15T00:22:00.670Z,24.65
2017-02-15T00:23:13.784Z,24.71
2017-02-15T00:24:27.497Z,24.67
2017-02-15T00:25:41.231Z,24.81
2017-02-15T00:26:54.356Z,24.69
2017-02-15T00:28:08.082Z,24.76
2017-02-15T00:29:21.766Z,24.83
2017-02-15T00:30:35.502Z,24.68
2017-02-15T00:31:49.287Z,24.69
2017-02-15T00:33:03.021Z,24.81
2017-02-15T00:34:16.746Z,24.71
2017-02-15T00:35:29.283Z,24.73
2017-02-15T00:36:42.994Z,24.8
2017-02-15T00:37:56.710Z,24.71
2017-02-15T00:39:10.478Z,24.8
2017-02-15T00:40:24.177Z,24.85
2017-02-15T00:41:37.943Z,24.85
2017-02-15T00:42:51.655Z,24.85
2017-02-15T00:44:05.376Z,24.84
2017-02-15T00:45:19.155Z,24.84
2017-02-15T00:46:32.868Z,24.9
2017-02-15T00:47:46.607Z,24.9
2017-02-15T00:49:00.284Z,24.88
2017-02-15T00:50:13.400Z,24.83
2017-02-15T00:51:27.085Z,24.83
2017-02-15T00:52:40.796Z,24.83
2017-02-15T00:53:54.517Z,24.85
2017-02-15T00:55:08.258Z,24.88
2017-02-15T00:56:21.939Z,24.84
2017-02-15T00:57:35.662Z,24.8
2017-02-15T00:58:49.388Z,24.73
2017-02-15T01:00:03.141Z,24.69
2017-02-15T01:01:15.675Z,24.69
2017-02-15T01:02:28.851Z,24.69
2017-02-15T01:03:42.574Z,24.78
2017-02-15T01:04:56.270Z,24.69
2017-02-15T01:06:09.991Z,24.71
2017-02-15T01:07:23.677Z,24.81
2017-02-15T01:08:37.455Z,24.83
2017-02-15T01:09:51.217Z,24.77
2017-02-15T01:11:04.935Z,24.81
2017-02-15T01:12:18.052Z,24.77
2017-02-15T01:13:31.156Z,24.81
2017-02-15T01:14:44.860Z,24.81
2017-02-15T01:15:58.614Z,24.8
2017-02-15T01:17:12.379Z,24.77
2017-02-15T01:18:26.104Z,24.76
2017-02-15T01:19:38.623Z,24.77
2017-02-15T01:20:52.356Z,24.81
2017-02-15T01:22:06.111Z,24.83
2017-02-15T01:23:19.793Z,24.83
2017-02-15T01:24:33.493Z,24.9
2017-02-15T01:25:46.627Z,24.85
2017-02-15T01:27:00.354Z,24.81
2017-02-15T01:28:12.864Z,24.8
2017-02-15T01:29:25.996Z,24.83
2017-02-15T01:30:39.715Z,24.77
2017-02-15T01:31:53.454Z,24.81
2017-02-15T01:33:07.206Z,24.8
2017-02-15T01:34:20.975Z,24.84
2017-02-15T01:35:34.679Z,24.81
2017-02-15T01:36:48.359Z,24.83
2017-02-15T01:38:02.075Z,24.84
2017-02-15T01:39:15.775Z,24.78
2017-02-15T01:40:29.487Z,24.81
2017-02-15T01:41:42.637Z,24.84
2017-02-15T01:42:56.308Z,24.85
2017-02-15T01:44:09.440Z,24.83
2017-02-15T01:45:23.111Z,24.78
2017-02-15T01:46:36.235Z,24.85
2017-02-15T01:47:49.991Z,24.85
2017-02-15T01:49:03.709Z,24.85
2017-02-15T01:50:17.434Z,24.91
2017-02-15T01:51:31.153Z,24.81
2017-02-15T01:52:44.851Z,24.88
2017-02-15T01:53:58.549Z,24.96
2017-02-15T01:55:12.264Z,24.9
2017-02-15T01:56:26.019Z,25
2017-02-15T01:57:39.744Z,24.9
2017-02-15T01:58:52.869Z,24.87
2017-02-15T02:00:05.987Z,24.84
2017-02-15T02:01:19.719Z,24.88
2017-02-15T02:02:32.850Z,24.98
2017-02-15T02:03:46.585Z,24.96
2017-02-15T02:05:00.258Z,24.85
2017-02-15T02:06:13.965Z,24.83
2017-02-15T02:07:27.671Z,24.78
2017-02-15T02:08:40.771Z,24.78
2017-02-15T02:09:53.891Z,24.85
2017-02-15T02:11:07.592Z,24.85
2017-02-15T02:12:21.335Z,24.77
2017-02-15T02:13:34.618Z,24.8
2017-02-15T02:14:48.325Z,24.78
2017-02-15T02:16:02.067Z,24.87
2017-02-15T02:17:15.775Z,24.83
2017-02-15T02:18:29.474Z,24.81
2017-02-15T02:19:43.144Z,24.84
2017-02-15T02:20:56.849Z,24.8
2017-02-15T02:22:09.374Z,24.93
2017-02-15T02:23:23.138Z,24.95
2017-02-15T02:24:36.871Z,24.96
2017-02-15T02:25:50.653Z,24.9
2017-02-15T02:27:04.415Z,24.9
2017-02-15T02:28:18.146Z,24.87
2017-02-15T02:29:31.875Z,24.85
2017-02-15T02:30:45.573Z,24.88
2017-02-15T02:31:59.297Z,24.84
2017-02-15T02:33:13.038Z,24.84
2017-02-15T02:34:26.753Z,24.78
2017-02-15T02:35:40.431Z,24.83
2017-02-15T02:36:54.189Z,24.84
2017-02-15T02:38:07.905Z,24.88
2017-02-15T02:39:21.035Z,24.8
2017-02-15T02:40:34.737Z,24.84
2017-02-15T02:41:48.450Z,24.77
2017-02-15T02:43:02.203Z,24.84
2017-02-15T02:44:15.920Z,24.68
2017-02-15T02:45:29.008Z,24.68
2017-02-15T02:46:42.700Z,24.65
2017-02-15T02:47:56.480Z,24.65
2017-02-15T02:49:10.245Z,24.73
2017-02-15T02:50:23.354Z,24.83
2017-02-15T02:51:36.485Z,24.73
2017-02-15T02:52:50.207Z,24.81
2017-02-15T02:54:03.946Z,24.81
2017-02-15T02:55:17.701Z,24.84
2017-02-15T02:56:31.455Z,24.87
2017-02-15T02:57:45.172Z,24.88
2017-02-15T02:58:58.878Z,24.81
2017-02-15T03:00:12.621Z,24.68
2017-02-15T03:01:26.331Z,24.69
2017-02-15T03:02:39.470Z,24.67
2017-02-15T03:03:53.182Z,24.65
2017-02-15T03:05:06.368Z,24.55
2017-02-15T03:06:20.092Z,24.58
2017-02-15T03:07:33.212Z,24.65
2017-02-15T03:08:46.910Z,24.6
2017-02-15T03:10:00.613Z,24.61
2017-02-15T03:11:14.324Z,24.49
2017-02-15T03:12:27.428Z,24.45
2017-02-15T03:13:41.127Z,24.47
2017-02-15T03:14:54.898Z,24.5
2017-02-15T03:16:08.651Z,24.46
2017-02-15T03:17:21.734Z,24.43
2017-02-15T03:18:34.211Z,24.43
2017-02-15T03:19:47.925Z,24.4
2017-02-15T03:21:01.617Z,24.4
2017-02-15T03:22:14.764Z,24.4
2017-02-15T03:23:28.514Z,24.47
2017-02-15T03:24:42.259Z,24.4
2017-02-15T03:25:55.380Z,24.46
2017-02-15T03:27:09.081Z,24.52
2017-02-15T03:28:22.808Z,24.53
2017-02-15T03:29:36.511Z,24.49
2017-02-15T03:30:50.217Z,24.49
2017-02-15T03:32:03.936Z,24.43
2017-02-15T03:33:17.687Z,24.46
2017-02-15T03:34:31.386Z,24.5
2017-02-15T03:35:44.511Z,24.42
2017-02-15T03:36:58.237Z,24.49
2017-02-15T03:38:11.336Z,24.47
2017-02-15T03:39:25.050Z,24.39
2017-02-15T03:40:38.799Z,24.34
2017-02-15T03:41:52.525Z,24.39
2017-02-15T03:43:06.232Z,24.25
2017-02-15T03:44:19.908Z,24.3
2017-02-15T03:45:33.615Z,24.28
2017-02-15T03:46:47.363Z,24.27
2017-02-15T03:48:01.096Z,24.22
2017-02-15T03:49:14.879Z,24.22
2017-02-15T03:50:28.559Z,24.21
2017-02-15T03:51:42.242Z,24.32
2017-02-15T03:52:55.992Z,24.25
2017-02-15T03:54:09.727Z,24.18
2017-02-15T03:55:22.864Z,24.18
2017-02-15T03:56:36.598Z,24.24
2017-02-15T03:57:50.303Z,24.27
2017-02-15T03:59:04.004Z,24.3
2017-02-15T04:00:17.128Z,24.32
2017-02-15T04:01:30.831Z,24.43
2017-02-15T04:02:44.539Z,24.42
2017-02-15T04:03:58.306Z,24.39
2017-02-15T04:05:12.072Z,24.49
2017-02-15T04:06:25.805Z,24.53
2017-02-15T04:07:39.569Z,24.46
2017-02-15T04:08:53.307Z,24.46
2017-02-15T04:10:06.977Z,24.35
2017-02-15T04:11:20.658Z,24.46
2017-02-15T04:12:33.831Z,24.47
2017-02-15T04:13:47.557Z,24.47
2017-02-15T04:15:01.293Z,24.45
2017-02-15T04:16:14.402Z,24.43
2017-02-15T04:17:28.156Z,24.52
2017-02-15T04:18:41.855Z,24.46
2017-02-15T04:19:55.541Z,24.46
2017-02-15T04:21:09.275Z,24.42
2017-02-15T04:22:22.358Z,24.42
2017-02-15T04:23:36.078Z,24.31
2017-02-15T04:24:49.779Z,24.39
2017-02-15T04:26:03.524Z,24.32
2017-02-15T04:27:17.277Z,24.37
2017-02-15T04:28:31.015Z,24.28
2017-02-15T04:29:44.740Z,24.1
2017-02-15T04:30:58.432Z,24.13
2017-02-15T04:32:11.559Z,23.97
2017-02-15T04:33:25.275Z,23.95
2017-02-15T04:34:39.036Z,23.95
2017-02-15T04:35:52.756Z,23.98
2017-02-15T04:37:06.496Z,24.12
2017-02-15T04:38:20.221Z,24.24
2017-02-15T04:39:33.945Z,24.21
2017-02-15T04:40:47.668Z,24.1
2017-02-15T04:42:01.373Z,24.05
2017-02-15T04:43:14.502Z,23.95
2017-02-15T04:44:28.231Z,24.12
2017-02-15T04:45:41.940Z,24.13
2017-02-15T04:46:55.627Z,24.25
2017-02-15T04:48:09.354Z,24.1
2017-02-15T04:49:23.091Z,24.24
2017-02-15T04:50:36.851Z,24.1
2017-02-15T04:51:49.975Z,24.16
2017-02-15T04:53:03.737Z,24.05
2017-02-15T04:54:17.451Z,24.15
2017-02-15T04:55:31.145Z,24.12
2017-02-15T04:56:44.914Z,24.03
2017-02-15T04:57:58.637Z,23.97
2017-02-15T04:59:12.345Z,24.02
2017-02-15T05:00:26.045Z,23.97
2017-02-15T05:01:39.787Z,23.94
2017-02-15T05:02:53.496Z,23.93
2017-02-15T05:04:07.218Z,23.84
2017-02-15T05:05:20.957Z,23.79
2017-02-15T05:06:34.080Z,23.79
2017-02-15T05:07:47.789Z,23.83
2017-02-15T05:09:01.494Z,23.83
2017-02-15T05:10:15.227Z,23.88
2017-02-15T05:11:28.947Z,23.85
2017-02-15T05:12:42.637Z,23.8
2017-02-15T05:13:56.375Z,23.85
2017-02-15T05:15:09.558Z,23.9
2017-02-15T05:16:23.331Z,23.9
2017-02-15T05:17:36.503Z,23.73
2017-02-15T05:18:49.672Z,23.9
2017-02-15T05:20:03.420Z,23.85
2017-02-15T05:21:15.326Z,23.91
2017-02-15T05:22:29.084Z,23.83
2017-02-15T05:23:42.817Z,23.83
2017-02-15T05:24:56.547Z,23.78
2017-02-15T05:26:09.638Z,23.68
2017-02-15T05:27:23.397Z,23.7
2017-02-15T05:28:36.548Z,23.69
2017-02-15T05:29:49.677Z,23.65
2017-02-15T05:31:03.434Z,23.58
2017-02-15T05:32:17.207Z,23.6
2017-02-15T05:33:30.900Z,23.55
2017-02-15T05:34:44.603Z,23.58
2017-02-15T05:35:58.339Z,23.61
2017-02-15T05:37:12.111Z,23.54
2017-02-15T05:38:25.831Z,23.55
2017-02-15T05:39:39.544Z,23.61
2017-02-15T05:40:52.694Z,23.6
2017-02-15T05:42:06.439Z,23.5
2017-02-15T05:43:19.577Z,23.36
2017-02-15T05:44:33.296Z,23.38
2017-02-15T05:45:46.432Z,23.33
2017-02-15T05:47:00.113Z,23.33
2017-02-15T05:48:13.861Z,23.39
2017-02-15T05:49:27.552Z,23.39
2017-02-15T05:50:41.256Z,23.38
2017-02-15T05:51:54.970Z,23.36
2017-02-15T05:53:08.681Z,23.35
2017-02-15T05:54:22.398Z,23.27
2017-02-15T05:55:36.189Z,23.35
2017-02-15T05:56:49.916Z,23.28
2017-02-15T05:58:03.690Z,23.28
2017-02-15T05:59:17.400Z,23.13
2017-02-15T06:00:30.512Z,23.22
2017-02-15T06:01:44.263Z,23.17
2017-02-15T06:02:58.019Z,23.04
2017-02-15T06:04:11.732Z,23.04
2017-02-15T06:05:25.473Z,23.1
2017-02-15T06:06:39.179Z,23.05
2017-02-15T06:07:52.854Z,22.98
2017-02-15T06:09:06.597Z,23.05
2017-02-15T06:10:19.149Z,22.97
2017-02-15T06:11:32.849Z,22.92
2017-02-15T06:12:46.611Z,22.83
2017-02-15T06:14:00.379Z,22.92
2017-02-15T06:15:13.542Z,23.01
2017-02-15T06:16:26.073Z,23.04
2017-02-15T06:17:39.755Z,23.02
2017-02-15T06:18:53.493Z,23.01
2017-02-15T06:20:07.163Z,23.01
2017-02-15T06:21:19.719Z,22.97
2017-02-15T06:22:33.465Z,22.97
2017-02-15T06:23:47.177Z,23.02
2017-02-15T06:25:00.316Z,23.05
2017-02-15T06:26:14.005Z,22.97
2017-02-15T06:27:27.727Z,23.01
2017-02-15T06:28:41.475Z,22.97
2017-02-15T06:29:53.985Z,23.02
2017-02-15T06:31:07.706Z,23.01
2017-02-15T06:32:21.419Z,23.04
2017-02-15T06:33:34.534Z,23.02
2017-02-15T06:34:48.446Z,23.02
2017-02-15T06:36:02.178Z,22.95
2017-02-15T06:37:14.754Z,23
2017-02-15T06:38:27.865Z,22.94
2017-02-15T06:39:41.593Z,22.83
2017-02-15T06:40:54.715Z,22.9
2017-02-15T06:42:07.815Z,22.79
2017-02-15T06:43:20.916Z,22.72
2017-02-15T06:44:34.668Z,22.76
2017-02-15T06:45:47.803Z,22.75
2017-02-15T06:47:05.052Z,22.72
2017-02-15T06:48:18.766Z,22.8
2017-02-15T06:49:32.670Z,22.72
2017-02-15T06:50:46.341Z,22.61
2017-02-15T06:52:00.748Z,22.62
2017-02-15T06:53:14.554Z,22.54
2017-02-15T06:54:28.910Z,22.54
2017-02-15T06:55:42.639Z,22.57
2017-02-15T06:56:56.454Z,22.54
2017-02-15T06:58:10.871Z,22.55
2017-02-15T06:59:25.278Z,22.64
2017-02-15T07:00:39.015Z,22.64
2017-02-15T07:01:53.406Z,22.7
2017-02-15T07:03:07.156Z,22.68
2017-02-15T07:04:20.883Z,22.54
2017-02-15T07:05:34.651Z,22.51
2017-02-15T07:06:49.095Z,22.52
2017-02-15T07:08:03.507Z,22.61
2017-02-15T07:09:16.669Z,22.67
2017-02-15T07:10:31.088Z,22.67
2017-02-15T07:11:45.465Z,22.79
2017-02-15T07:12:59.837Z,22.77
2017-02-15T07:14:14.234Z,22.64
2017-02-15T07:15:28.639Z,22.54
2017-02-15T07:16:43.010Z,22.55
2017-02-15T07:17:57.383Z,22.52
2017-02-15T07:19:11.811Z,22.51
2017-02-15T07:20:26.198Z,22.46
2017-02-15T07:21:40.603Z,22.51
2017-02-15T07:22:54.973Z,22.46
2017-02-15T07:24:09.371Z,22.45
2017-02-15T07:25:23.103Z,22.43
2017-02-15T07:26:37.482Z,22.33
2017-02-15T07:27:51.907Z,22.37
2017-02-15T07:29:06.300Z,22.31
2017-02-15T07:30:20.058Z,22.25
2017-02-15T07:31:33.794Z,22.33
2017-02-15T07:32:48.185Z,22.21
2017-02-15T07:34:02.582Z,22.22
2017-02-15T07:35:16.970Z,22.18
2017-02-15T07:36:30.118Z,22.14
2017-02-15T07:37:44.484Z,22.09
2017-02-15T07:38:58.244Z,22.12
2017-02-15T07:40:12.637Z,22.14
2017-02-15T07:41:27.028Z,22.09
2017-02-15T07:42:41.470Z,22.12
2017-02-15T07:43:55.225Z,22.09
2017-02-15T07:45:09.631Z,22.07
2017-02-15T07:46:24.057Z,22.06
2017-02-15T07:47:37.832Z,22.02
2017-02-15T07:48:52.239Z,22.14
2017-02-15T07:50:06.670Z,22.09
2017-02-15T07:51:20.423Z,22.14
2017-02-15T07:52:34.792Z,22.2
2017-02-15T07:53:48.599Z,22.25
2017-02-15T07:55:02.388Z,22.27
2017-02-15T07:56:16.154Z,22.35
2017-02-15T07:57:29.962Z,22.33
2017-02-15T07:58:44.393Z,22.36
2017-02-15T07:59:58.173Z,22.22
2017-02-15T08:01:12.584Z,22.18
2017-02-15T08:02:26.979Z,22.22
2017-02-15T08:03:41.383Z,22.21
2017-02-15T08:04:55.793Z,22.17
2017-02-15T08:06:09.545Z,22.2
2017-02-15T08:07:23.376Z,22.25
2017-02-15T08:08:37.137Z,22.18
2017-02-15T08:09:51.545Z,22.2
2017-02-15T08:11:05.993Z,22.09
2017-02-15T08:12:19.732Z,22.22
2017-02-15T08:13:34.119Z,22.21
2017-02-15T08:14:48.526Z,22.14
2017-02-15T08:16:02.927Z,22.07
2017-02-15T08:17:16.680Z,22.06
2017-02-15T08:18:31.080Z,22.07
2017-02-15T08:19:45.455Z,22.14
2017-02-15T08:20:59.845Z,22.15
2017-02-15T08:22:14.271Z,22.07
2017-02-15T08:23:28.708Z,22.07
2017-02-15T08:24:43.081Z,22.02
2017-02-15T08:25:57.464Z,22
2017-02-15T08:27:11.254Z,22.06
2017-02-15T08:28:25.669Z,21.98
2017-02-15T08:29:40.054Z,22.06
2017-02-15T08:30:54.479Z,22.06
2017-02-15T08:32:08.955Z,21.96
2017-02-15T08:33:23.389Z,21.96
2017-02-15T08:34:36.512Z,21.96
2017-02-15T08:35:50.917Z,21.88
2017-02-15T08:37:05.362Z,21.9
2017-02-15T08:38:19.815Z,21.9
2017-02-15T08:39:34.227Z,22.05
2017-02-15T08:40:48.659Z,22.1
2017-02-15T08:42:03.103Z,22.06
2017-02-15T08:43:16.222Z,22.17
2017-02-15T08:44:30.666Z,22.12
2017-02-15T08:45:44.476Z,22.12
2017-02-15T08:46:58.897Z,22.07
2017-02-15T08:48:13.367Z,22.07
2017-02-15T08:49:27.845Z,22.15
2017-02-15T08:50:40.930Z,22.17
2017-02-15T08:51:55.434Z,22.09
2017-02-15T08:53:09.836Z,22.03
2017-02-15T08:54:24.317Z,21.99
2017-02-15T08:55:38.755Z,21.94
2017-02-15T08:56:53.157Z,21.9
2017-02-15T08:58:07.590Z,21.84
2017-02-15T08:59:21.387Z,21.88
2017-02-15T09:00:35.810Z,22.02
2017-02-15T09:01:49.604Z,22.1
2017-02-15T09:03:03.369Z,22.09
2017-02-15T09:04:17.772Z,22.25
2017-02-15T09:05:32.182Z,22.36
2017-02-15T09:06:46.607Z,22.4
2017-02-15T09:08:01.052Z,22.52
2017-02-15T09:09:15.545Z,22.72
2017-02-15T09:10:29.330Z,22.79
2017-02-15T09:11:43.746Z,22.85
2017-02-15T09:12:58.213Z,22.94
2017-02-15T09:14:12.010Z,23.05
2017-02-15T09:15:26.539Z,23.05
2017-02-15T09:16:40.944Z,23.07
2017-02-15T09:17:55.364Z,23.09
2017-02-15T09:19:09.926Z,23.12
2017-02-15T09:20:24.332Z,23.23
2017-02-15T09:21:38.105Z,23.27
2017-02-15T09:22:52.544Z,23.36
2017-02-15T09:24:06.411Z,23.36
2017-02-15T09:25:20.285Z,23.54
2017-02-15T09:26:34.031Z,23.66
2017-02-15T09:27:48.506Z,23.7
2017-02-15T09:29:02.966Z,23.76
2017-02-15T09:30:16.756Z,23.9
2017-02-15T09:31:31.344Z,23.9
2017-02-15T09:32:45.800Z,23.79
2017-02-15T09:34:00.292Z,23.93
2017-02-15T09:35:14.143Z,23.95
2017-02-15T09:36:28.689Z,24.13
2017-02-15T09:37:43.138Z,24.32
2017-02-15T09:38:57.622Z,24.55
2017-02-15T09:40:12.072Z,24.71
2017-02-15T09:41:26.611Z,24.93
2017-02-15T09:42:40.483Z,24.95
2017-02-15T09:43:54.952Z,24.81
2017-02-15T09:45:09.485Z,24.83
2017-02-15T09:46:23.483Z,24.76
2017-02-15T09:47:37.330Z,24.8
2017-02-15T09:48:51.135Z,24.78
2017-02-15T09:50:04.977Z,24.69
2017-02-15T09:51:17.692Z,24.8
2017-02-15T09:52:32.105Z,24.81
2017-02-15T09:53:46.544Z,24.67
2017-02-15T09:55:01.051Z,24.91
2017-02-15T09:56:14.277Z,24.69
2017-02-15T09:57:28.754Z,24.6
2017-02-15T09:58:43.171Z,24.62
2017-02-15T09:59:56.939Z,24.65
2017-02-15T10:01:10.767Z,24.58
2017-02-15T10:02:25.188Z,24.57
2017-02-15T10:03:39.718Z,24.71
2017-02-15T10:04:54.243Z,24.93
2017-02-15T10:06:08.646Z,24.98
2017-02-15T10:07:22.628Z,24.88
2017-02-15T10:08:36.433Z,24.81
2017-02-15T10:09:50.945Z,24.98
2017-02-15T10:11:05.395Z,25.02
2017-02-15T10:12:18.623Z,25.33
2017-02-15T10:13:33.197Z,25.4
2017-02-15T10:14:47.767Z,25.35
2017-02-15T10:16:01.700Z,25.36
2017-02-15T10:17:15.187Z,25.25
2017-02-15T10:18:29.109Z,25.4
2017-02-15T10:19:43.639Z,25.62
2017-02-15T10:20:58.164Z,25.83
2017-02-15T10:22:12.154Z,26.13
2017-02-15T10:23:26.612Z,26.44
2017-02-15T10:24:41.097Z,26.54
2017-02-15T10:25:55.705Z,26.72
2017-02-15T10:27:10.290Z,26.84
2017-02-15T10:28:24.847Z,26.81
2017-02-15T10:29:39.450Z,26.85
2017-02-15T10:30:54.048Z,26.94
2017-02-15T10:32:07.988Z,26.76
2017-02-15T10:33:21.886Z,26.55
2017-02-15T10:34:35.892Z,26.51
2017-02-15T10:35:50.364Z,26.51
2017-02-15T10:37:04.929Z,26.47
2017-02-15T10:38:18.864Z,26.47
2017-02-15T10:39:32.770Z,26.65
2017-02-15T10:40:47.288Z,26.77
2017-02-15T10:42:01.309Z,27.03
2017-02-15T10:43:15.213Z,26.87
2017-02-15T10:44:29.944Z,27
2017-02-15T10:45:44.511Z,27.29
2017-02-15T10:46:59.167Z,27.67
2017-02-15T10:48:13.799Z,27.49
2017-02-15T10:49:28.351Z,27.62
2017-02-15T10:50:41.599Z,27.7
2017-02-15T10:51:56.189Z,27.81
2017-02-15T10:53:10.714Z,28.09
2017-02-15T10:54:24.853Z,28.61
2017-02-15T10:55:39.476Z,28.89
2017-02-15T10:56:54.074Z,28.55
2017-02-15T10:58:08.134Z,28.86
2017-02-15T10:59:22.040Z,29.06
2017-02-15T11:00:35.988Z,29.34
2017-02-15T11:01:50.556Z,29.46
2017-02-15T11:03:05.220Z,29.39
2017-02-15T11:04:19.754Z,29.58
2017-02-15T11:05:34.658Z,29.64
2017-02-15T11:06:48.552Z,29.36
2017-02-15T11:08:03.153Z,29.14
2017-02-15T11:09:17.654Z,28.96
2017-02-15T11:10:32.187Z,29.11
2017-02-15T11:11:46.797Z,29.45
2017-02-15T11:13:00.895Z,29.83
2017-02-15T11:14:15.006Z,30.42
2017-02-15T11:15:29.556Z,30.76
2017-02-15T11:16:44.296Z,30.53
2017-02-15T11:17:58.861Z,30.31
2017-02-15T11:19:13.584Z,29.78
2017-02-15T11:20:28.341Z,29.98
2017-02-15T11:21:42.981Z,29.87
2017-02-15T11:22:57.767Z,30.02
2017-02-15T11:24:11.754Z,30.1
2017-02-15T11:25:26.446Z,30.26
2017-02-15T11:26:41.165Z,30.67
2017-02-15T11:27:55.642Z,30.53
2017-02-15T11:29:10.064Z,30.75
2017-02-15T11:30:23.448Z,30.53
2017-02-15T11:31:38.298Z,29.89
2017-02-15T11:32:52.878Z,29.58
2017-02-15T11:34:07.374Z,28.98
2017-02-15T11:35:21.371Z,28.71
2017-02-15T11:36:36.133Z,28.21
2017-02-15T11:37:50.120Z,28.07
2017-02-15T11:39:04.726Z,28.03
2017-02-15T11:40:19.323Z,27.93
2017-02-15T11:41:33.947Z,28
2017-02-15T11:42:48.425Z,28.22
2017-02-15T11:44:02.370Z,28.21
2017-02-15T11:45:17.003Z,28.46
2017-02-15T11:46:31.645Z,28.83
2017-02-15T11:47:46.302Z,28.93
2017-02-15T11:49:00.790Z,28.54
2017-02-15T11:50:14.696Z,28.46
2017-02-15T11:51:29.208Z,28.8
2017-02-15T11:52:43.856Z,28.93
2017-02-15T11:54:10.624Z,29.14
2017-02-15T11:55:25.380Z,29.21
2017-02-15T11:56:39.946Z,29
2017-02-15T11:57:56.200Z,28.73
2017-02-15T11:59:10.913Z,28.56
2017-02-15T12:00:24.176Z,28.74
2017-02-15T12:01:38.819Z,28.98
2017-02-15T12:02:53.440Z,28.61
2017-02-15T12:04:07.433Z,28.74
2017-02-15T12:05:22.113Z,29.46
2017-02-15T12:06:44.455Z,29.31
2017-02-15T12:07:59.002Z,29.42
2017-02-15T12:09:13.774Z,29.61
2017-02-15T12:10:27.781Z,29.45
2017-02-15T12:11:42.466Z,29.24
2017-02-15T12:12:57.062Z,29.28
2017-02-15T12:14:11.501Z,28.68
2017-02-15T12:15:25.649Z,28.22
2017-02-15T12:16:40.311Z,28.67
2017-02-15T12:17:55.161Z,29.08
2017-02-15T12:19:09.741Z,29.14
2017-02-15T12:20:24.392Z,29.12
2017-02-15T12:21:38.979Z,29.09
2017-02-15T12:22:53.825Z,28.93
2017-02-15T12:24:08.340Z,29.02
2017-02-15T12:25:23.154Z,29.58
2017-02-15T12:26:37.821Z,30.07
2017-02-15T12:27:52.506Z,30.2
2017-02-15T12:29:05.792Z,29.87
2017-02-15T12:30:19.797Z,30.04
2017-02-15T12:31:34.237Z,30.37
2017-02-15T12:32:48.765Z,30.02
2017-02-15T12:34:03.305Z,29.78
2017-02-15T12:35:18.267Z,29.31
2017-02-15T12:36:32.276Z,29.12
2017-02-15T12:37:46.247Z,29.26
2017-02-15T12:39:00.964Z,29.16
2017-02-15T12:40:15.031Z,29.34
2017-02-15T12:41:29.651Z,29.42
2017-02-15T12:42:44.237Z,29.53
2017-02-15T12:43:58.860Z,29.87
2017-02-15T12:45:12.695Z,30.22
2017-02-15T12:46:27.642Z,29.58
2017-02-15T12:47:42.230Z,29.55
2017-02-15T12:48:57.037Z,29.57
2017-02-15T12:50:13.292Z,29.79
2017-02-15T12:51:27.945Z,30.64
2017-02-15T12:52:42.516Z,30.89
2017-02-15T12:53:57.027Z,30.8
2017-02-15T12:55:11.708Z,30.54
2017-02-15T12:56:25.796Z,30.47
2017-02-15T12:57:39.660Z,30.51
2017-02-15T12:58:55.910Z,30.8
2017-02-15T13:00:09.880Z,31.36
2017-02-15T13:01:24.659Z,31.56
2017-02-15T13:02:39.366Z,31.86
2017-02-15T13:03:53.635Z,31.19
2017-02-15T13:05:07.848Z,30.49
2017-02-15T13:06:22.444Z,30.54
2017-02-15T13:07:37.142Z,30.19
2017-02-15T13:08:51.642Z,30.11
2017-02-15T13:10:05.949Z,30.49
2017-02-15T13:11:20.901Z,30.75
2017-02-15T13:12:34.936Z,30.98
2017-02-15T13:13:50.703Z,31.78
2017-02-15T13:15:03.971Z,31.85
2017-02-15T13:16:18.556Z,31.85
2017-02-15T13:17:32.442Z,32
2017-02-15T13:18:46.348Z,31.75
2017-02-15T13:20:01.635Z,31.89
2017-02-15T13:21:15.852Z,31.81
2017-02-15T13:22:29.916Z,31.5
2017-02-15T13:23:44.701Z,31.53
2017-02-15T13:24:59.203Z,31.81
2017-02-15T13:26:13.249Z,31.99
2017-02-15T13:27:27.914Z,31.96
2017-02-15T13:28:42.832Z,32.51
2017-02-15T13:29:57.389Z,32.22
2017-02-15T13:31:11.984Z,32.25
2017-02-15T13:32:26.700Z,32.55
2017-02-15T13:33:41.597Z,32.79
2017-02-15T13:34:56.218Z,33.12
2017-02-15T13:36:10.202Z,33.11
2017-02-15T13:37:24.798Z,33.16
2017-02-15T13:38:38.908Z,33.18
2017-02-15T13:39:53.543Z,33.54
2017-02-15T13:41:07.514Z,33.94
2017-02-15T13:42:22.117Z,34.1
2017-02-15T13:43:37.163Z,34
2017-02-15T13:44:51.806Z,33.75
2017-02-15T13:46:06.337Z,33.97
2017-02-15T13:47:20.359Z,34.5
2017-02-15T13:48:34.269Z,35.04
2017-02-15T13:49:48.380Z,35.1
2017-02-15T13:51:02.983Z,35.29
2017-02-15T13:52:19.143Z,35.4
2017-02-15T13:53:33.749Z,35.21
2017-02-15T13:54:48.351Z,35.19
2017-02-15T13:56:02.201Z,35.33
2017-02-15T13:57:17.108Z,35.45
2017-02-15T13:58:31.717Z,35.59
2017-02-15T13:59:46.539Z,35.7
2017-02-15T14:01:00.540Z,35.4
2017-02-15T14:02:15.233Z,35.15
2017-02-15T14:03:29.564Z,35.19
2017-02-15T14:04:44.388Z,35.33
2017-02-15T14:05:58.805Z,35.07
2017-02-15T14:07:13.233Z,34.58
2017-02-15T14:08:27.126Z,34.58
2017-02-15T14:09:40.390Z,34.73
2017-02-15T14:10:55.060Z,35.18
2017-02-15T14:12:11.188Z,35.72
2017-02-15T14:13:26.505Z,36.37
2017-02-15T14:14:41.068Z,36.57
2017-02-15T14:15:56.653Z,36.54
2017-02-15T14:17:12.005Z,36.47
2017-02-15T14:18:26.501Z,36.16
2017-02-15T14:19:39.727Z,35.85
2017-02-15T14:20:53.809Z,35.96
2017-02-15T14:22:08.510Z,36
2017-02-15T14:23:22.546Z,35.96
2017-02-15T14:24:37.261Z,35.9
2017-02-15T14:25:51.107Z,35.77
2017-02-15T14:27:05.018Z,35.6
2017-02-15T14:28:19.538Z,35.19
2017-02-15T14:29:33.570Z,35.03
2017-02-15T14:30:48.216Z,35.07
2017-02-15T14:32:02.361Z,35.18
2017-02-15T14:33:16.983Z,35.06
2017-02-15T14:34:31.710Z,35.22
2017-02-15T14:35:48.027Z,35.53
2017-02-15T14:37:01.960Z,35.21
2017-02-15T14:38:16.678Z,34.7
2017-02-15T14:39:30.682Z,34.81
2017-02-15T14:40:44.588Z,34.97
2017-02-15T14:41:58.530Z,34.99
2017-02-15T14:43:14.127Z,35.06
2017-02-15T14:44:27.497Z,34.84
2017-02-15T14:45:41.448Z,35.29
2017-02-15T14:46:57.816Z,35.71
2017-02-15T14:48:11.136Z,36.19
2017-02-15T14:49:25.405Z,35.97
2017-02-15T14:50:39.357Z,36.2
2017-02-15T14:51:54.101Z,36.23
2017-02-15T14:53:08.720Z,35.99
2017-02-15T14:54:23.468Z,35.65
2017-02-15T14:55:36.712Z,35.18
2017-02-15T14:56:51.192Z,34.89
2017-02-15T14:58:07.134Z,34.42
2017-02-15T14:59:20.980Z,34.17
2017-02-15T15:00:34.847Z,33.87
2017-02-15T15:01:48.860Z,33.79
2017-02-15T15:03:03.497Z,33.91
2017-02-15T15:04:18.195Z,33.63
2017-02-15T15:05:34.953Z,32.84
2017-02-15T15:06:49.632Z,32.21
2017-02-15T15:08:04.812Z,31.75
2017-02-15T15:09:19.483Z,31.31
2017-02-15T15:10:33.487Z,31.09
2017-02-15T15:11:48.131Z,30.98
2017-02-15T15:13:02.127Z,30.86
2017-02-15T15:14:16.723Z,30.92
2017-02-15T15:15:31.480Z,30.95
2017-02-15T15:16:46.137Z,31.14
2017-02-15T15:18:00.052Z,31.38
2017-02-15T15:19:13.431Z,31.56
2017-02-15T15:20:27.532Z,31.75
2017-02-15T15:21:42.193Z,31.68
2017-02-15T15:22:56.770Z,31.68
2017-02-15T15:24:11.340Z,31.66
2017-02-15T15:25:25.403Z,31.65
2017-02-15T15:26:40.050Z,31.7
2017-02-15T15:27:55.115Z,31.66
2017-02-15T15:29:09.057Z,31.85
2017-02-15T15:30:23.625Z,32.18
2017-02-15T15:31:41.534Z,32.32
2017-02-15T15:32:56.373Z,32.55
2017-02-15T15:34:10.957Z,32.41
2017-02-15T15:35:25.527Z,32.19
2017-02-15T15:36:40.034Z,32.15
2017-02-15T15:37:54.834Z,32.21
2017-02-15T15:39:09.449Z,32.62
2017-02-15T15:40:23.856Z,33.06
2017-02-15T15:41:37.797Z,33.53
2017-02-15T15:42:52.381Z,33.73
2017-02-15T15:44:06.260Z,34.19
2017-02-15T15:45:21.049Z,34.49
2017-02-15T15:46:35.679Z,34.81
2017-02-15T15:47:50.527Z,34.54
2017-02-15T15:49:05.122Z,34.47
2017-02-15T15:50:19.537Z,34.84
2017-02-15T15:51:34.087Z,35.15
2017-02-15T15:52:48.888Z,34.99
2017-02-15T15:54:03.485Z,34.85
2017-02-15T15:55:17.530Z,34.4
2017-02-15T15:56:32.219Z,34.1
2017-02-15T15:57:46.167Z,33.84
2017-02-15T15:59:01.146Z,33.49